sensor_id;sensor_type;location;lat;lon;timestamp;pressure;altitude;pressure_sealevel;temperature
69597;BMP180;70000;51.176;-115.568;2023-07-13T00:00:59;86494.60;;;27.24
69597;BMP180;70000;51.176;-115.568;2023-07-13T00:04:34;86506.20;;;26.90
69597;BMP180;70000;51.176;-115.568;2023-07-13T00:08:18;86498.20;;;26.60
69597;BMP180;70000;51.176;-115.568;2023-07-13T00:11:21;86504.40;;;26.30
69597;BMP180;70000;51.176;-115.568;2023-07-13T00:17:41;86497.20;;;25.90
69597;BMP180;70000;51.176;-115.568;2023-07-13T00:24:43;86511.00;;;26.90
69597;BMP180;70000;51.176;-115.568;2023-07-13T00:28:20;86510.60;;;27.78
69597;BMP180;70000;51.176;-115.568;2023-07-13T00:31:33;86506.60;;;28.56
69597;BMP180;70000;51.176;-115.568;2023-07-13T00:34:53;86494.20;;;29.32
69597;BMP180;70000;51.176;-115.568;2023-07-13T00:44:32;86508.20;;;30.38
69597;BMP180;70000;51.176;-115.568;2023-07-13T00:47:04;86509.20;;;30.40
69597;BMP180;70000;51.176;-115.568;2023-07-13T00:49:38;86501.20;;;30.10
69597;BMP180;70000;51.176;-115.568;2023-07-13T00:52:10;86502.60;;;29.80
69597;BMP180;70000;51.176;-115.568;2023-07-13T00:54:45;86497.40;;;29.46
69597;BMP180;70000;51.176;-115.568;2023-07-13T00:57:20;86496.20;;;29.06
69597;BMP180;70000;51.176;-115.568;2023-07-13T00:59:59;86498.00;;;28.68
69597;BMP180;70000;51.176;-115.568;2023-07-13T01:02:29;86498.00;;;28.30
69597;BMP180;70000;51.176;-115.568;2023-07-13T01:04:58;86499.80;;;28.00
69597;BMP180;70000;51.176;-115.568;2023-07-13T01:07:32;86495.20;;;27.70
69597;BMP180;70000;51.176;-115.568;2023-07-13T01:10:09;86495.40;;;27.32
69597;BMP180;70000;51.176;-115.568;2023-07-13T01:12:41;86496.00;;;27.04
69597;BMP180;70000;51.176;-115.568;2023-07-13T01:15:45;86502.00;;;26.76
69597;BMP180;70000;51.176;-115.568;2023-07-13T01:18:34;86507.00;;;26.44
69597;BMP180;70000;51.176;-115.568;2023-07-13T01:21:17;86507.20;;;26.20
69597;BMP180;70000;51.176;-115.568;2023-07-13T01:23:47;86509.80;;;25.98
69597;BMP180;70000;51.176;-115.568;2023-07-13T01:26:17;86510.60;;;25.70
69597;BMP180;70000;51.176;-115.568;2023-07-13T01:28:49;86514.00;;;25.50
69597;BMP180;70000;51.176;-115.568;2023-07-13T01:31:19;86520.20;;;25.30
69597;BMP180;70000;51.176;-115.568;2023-07-13T01:34:08;86525.40;;;25.00
69597;BMP180;70000;51.176;-115.568;2023-07-13T01:36:48;86527.80;;;24.80
69597;BMP180;70000;51.176;-115.568;2023-07-13T01:47:59;86543.80;;;24.00
69597;BMP180;70000;51.176;-115.568;2023-07-13T01:51:12;86540.60;;;23.80
69597;BMP180;70000;51.176;-115.568;2023-07-13T02:07:40;86561.40;;;22.70
69597;BMP180;70000;51.176;-115.568;2023-07-13T02:10:49;86573.00;;;22.52
69597;BMP180;70000;51.176;-115.568;2023-07-13T02:13:19;86569.20;;;22.48
69597;BMP180;70000;51.176;-115.568;2023-07-13T02:15:51;86566.20;;;22.40
69597;BMP180;70000;51.176;-115.568;2023-07-13T02:18:21;86564.80;;;22.40
69597;BMP180;70000;51.176;-115.568;2023-07-13T02:20:51;86564.60;;;22.30
69597;BMP180;70000;51.176;-115.568;2023-07-13T02:23:20;86570.20;;;22.30
69597;BMP180;70000;51.176;-115.568;2023-07-13T02:25:58;86572.80;;;22.20
69597;BMP180;70000;51.176;-115.568;2023-07-13T02:28:29;86574.20;;;22.10
69597;BMP180;70000;51.176;-115.568;2023-07-13T02:31:11;86578.60;;;22.00
69597;BMP180;70000;51.176;-115.568;2023-07-13T02:33:42;86576.00;;;21.90
69597;BMP180;70000;51.176;-115.568;2023-07-13T02:36:13;86573.60;;;21.80
69597;BMP180;70000;51.176;-115.568;2023-07-13T02:38:46;86572.60;;;21.70
69597;BMP180;70000;51.176;-115.568;2023-07-13T02:41:15;86568.20;;;21.70
69597;BMP180;70000;51.176;-115.568;2023-07-13T02:43:45;86570.20;;;21.60
69597;BMP180;70000;51.176;-115.568;2023-07-13T02:46:14;86573.80;;;21.60
69597;BMP180;70000;51.176;-115.568;2023-07-13T02:51:18;86582.00;;;21.50
69597;BMP180;70000;51.176;-115.568;2023-07-13T02:53:47;86575.40;;;21.50
69597;BMP180;70000;51.176;-115.568;2023-07-13T02:56:17;86577.00;;;21.50
69597;BMP180;70000;51.176;-115.568;2023-07-13T02:58:47;86575.60;;;21.50
69597;BMP180;70000;51.176;-115.568;2023-07-13T03:01:17;86574.00;;;21.40
69597;BMP180;70000;51.176;-115.568;2023-07-13T03:03:48;86571.20;;;21.30
69597;BMP180;70000;51.176;-115.568;2023-07-13T03:06:18;86570.80;;;21.30
69597;BMP180;70000;51.176;-115.568;2023-07-13T03:15:49;86580.20;;;21.02
69597;BMP180;70000;51.176;-115.568;2023-07-13T03:18:21;86579.00;;;21.00
69597;BMP180;70000;51.176;-115.568;2023-07-13T03:20:53;86576.80;;;20.90
69597;BMP180;70000;51.176;-115.568;2023-07-13T03:23:24;86573.40;;;20.80
69597;BMP180;70000;51.176;-115.568;2023-07-13T03:26:16;86579.80;;;20.70
69597;BMP180;70000;51.176;-115.568;2023-07-13T03:28:46;86576.00;;;20.60
69597;BMP180;70000;51.176;-115.568;2023-07-13T03:31:21;86573.20;;;20.50
69597;BMP180;70000;51.176;-115.568;2023-07-13T03:33:50;86574.20;;;20.40
69597;BMP180;70000;51.176;-115.568;2023-07-13T03:36:28;86578.80;;;20.30
69597;BMP180;70000;51.176;-115.568;2023-07-13T03:39:01;86580.00;;;20.20
69597;BMP180;70000;51.176;-115.568;2023-07-13T03:41:44;86579.80;;;20.10
69597;BMP180;70000;51.176;-115.568;2023-07-13T03:44:19;86585.60;;;20.00
69597;BMP180;70000;51.176;-115.568;2023-07-13T03:46:55;86583.80;;;19.90
69597;BMP180;70000;51.176;-115.568;2023-07-13T03:49:28;86591.00;;;19.80
69597;BMP180;70000;51.176;-115.568;2023-07-13T03:52:20;86589.00;;;19.70
69597;BMP180;70000;51.176;-115.568;2023-07-13T03:54:55;86590.20;;;19.60
69597;BMP180;70000;51.176;-115.568;2023-07-13T03:57:25;86596.20;;;19.50
69597;BMP180;70000;51.176;-115.568;2023-07-13T03:59:54;86604.60;;;19.40
69597;BMP180;70000;51.176;-115.568;2023-07-13T04:02:25;86605.60;;;19.30
69597;BMP180;70000;51.176;-115.568;2023-07-13T04:04:55;86608.00;;;19.20
69597;BMP180;70000;51.176;-115.568;2023-07-13T04:07:24;86600.40;;;19.16
69597;BMP180;70000;51.176;-115.568;2023-07-13T04:09:55;86605.60;;;19.10
69597;BMP180;70000;51.176;-115.568;2023-07-13T04:12:27;86605.20;;;19.00
69597;BMP180;70000;51.176;-115.568;2023-07-13T04:14:58;86610.80;;;19.00
69597;BMP180;70000;51.176;-115.568;2023-07-13T04:17:30;86612.20;;;18.90
69597;BMP180;70000;51.176;-115.568;2023-07-13T04:19:59;86613.20;;;18.80
69597;BMP180;70000;51.176;-115.568;2023-07-13T04:22:32;86621.00;;;18.80
69597;BMP180;70000;51.176;-115.568;2023-07-13T04:25:02;86620.80;;;18.80
69597;BMP180;70000;51.176;-115.568;2023-07-13T04:27:33;86621.00;;;18.72
69597;BMP180;70000;51.176;-115.568;2023-07-13T04:30:05;86621.80;;;18.70
69597;BMP180;70000;51.176;-115.568;2023-07-13T04:32:35;86621.00;;;18.70
69597;BMP180;70000;51.176;-115.568;2023-07-13T04:35:05;86621.80;;;18.60
69597;BMP180;70000;51.176;-115.568;2023-07-13T04:37:35;86619.80;;;18.60
69597;BMP180;70000;51.176;-115.568;2023-07-13T04:40:07;86615.00;;;18.50
69597;BMP180;70000;51.176;-115.568;2023-07-13T04:42:47;86620.60;;;18.50
69597;BMP180;70000;51.176;-115.568;2023-07-13T04:45:42;86616.80;;;18.40
69597;BMP180;70000;51.176;-115.568;2023-07-13T04:48:14;86622.00;;;18.34
69597;BMP180;70000;51.176;-115.568;2023-07-13T04:50:53;86628.20;;;18.30
69597;BMP180;70000;51.176;-115.568;2023-07-13T04:53:46;86622.40;;;18.20
69597;BMP180;70000;51.176;-115.568;2023-07-13T04:56:30;86621.80;;;18.10
69597;BMP180;70000;51.176;-115.568;2023-07-13T04:59:13;86617.80;;;18.10
69597;BMP180;70000;51.176;-115.568;2023-07-13T05:01:48;86616.00;;;18.00
69597;BMP180;70000;51.176;-115.568;2023-07-13T05:04:20;86613.60;;;18.00
69597;BMP180;70000;51.176;-115.568;2023-07-13T05:06:50;86617.40;;;17.90
69597;BMP180;70000;51.176;-115.568;2023-07-13T05:09:32;86616.00;;;17.86
69597;BMP180;70000;51.176;-115.568;2023-07-13T05:12:28;86617.80;;;17.80
69597;BMP180;70000;51.176;-115.568;2023-07-13T05:15:15;86618.40;;;17.70
69597;BMP180;70000;51.176;-115.568;2023-07-13T05:21:33;86628.20;;;17.70
69597;BMP180;70000;51.176;-115.568;2023-07-13T05:24:22;86631.00;;;17.70
69597;BMP180;70000;51.176;-115.568;2023-07-13T05:27:22;86632.80;;;17.66
69597;BMP180;70000;51.176;-115.568;2023-07-13T05:29:54;86641.40;;;17.64
69597;BMP180;70000;51.176;-115.568;2023-07-13T05:32:33;86641.60;;;17.62
69597;BMP180;70000;51.176;-115.568;2023-07-13T05:35:07;86650.00;;;17.68
69597;BMP180;70000;51.176;-115.568;2023-07-13T05:37:46;86652.80;;;17.70
69597;BMP180;70000;51.176;-115.568;2023-07-13T05:40:22;86665.80;;;17.66
69597;BMP180;70000;51.176;-115.568;2023-07-13T05:42:55;86668.00;;;17.66
69597;BMP180;70000;51.176;-115.568;2023-07-13T05:45:27;86671.80;;;17.60
69597;BMP180;70000;51.176;-115.568;2023-07-13T05:48:00;86671.20;;;17.60
69597;BMP180;70000;51.176;-115.568;2023-07-13T05:50:47;86682.00;;;17.60
69597;BMP180;70000;51.176;-115.568;2023-07-13T05:53:47;86689.40;;;17.50
69597;BMP180;70000;51.176;-115.568;2023-07-13T05:56:55;86694.80;;;17.50
69597;BMP180;70000;51.176;-115.568;2023-07-13T05:59:30;86696.40;;;17.50
69597;BMP180;70000;51.176;-115.568;2023-07-13T06:03:12;86698.80;;;17.50
69597;BMP180;70000;51.176;-115.568;2023-07-13T06:06:04;86704.20;;;17.50
69597;BMP180;70000;51.176;-115.568;2023-07-13T06:09:23;86707.40;;;17.50
69597;BMP180;70000;51.176;-115.568;2023-07-13T06:11:52;86718.80;;;17.50
69597;BMP180;70000;51.176;-115.568;2023-07-13T06:14:35;86730.60;;;17.50
69597;BMP180;70000;51.176;-115.568;2023-07-13T06:17:05;86731.60;;;17.44
69597;BMP180;70000;51.176;-115.568;2023-07-13T06:19:35;86736.60;;;17.40
69597;BMP180;70000;51.176;-115.568;2023-07-13T06:22:05;86739.60;;;17.36
69597;BMP180;70000;51.176;-115.568;2023-07-13T06:24:38;86743.60;;;17.30
69597;BMP180;70000;51.176;-115.568;2023-07-13T06:27:07;86754.80;;;17.30
69597;BMP180;70000;51.176;-115.568;2023-07-13T06:29:37;86772.80;;;17.20
69597;BMP180;70000;51.176;-115.568;2023-07-13T06:32:10;86777.40;;;17.10
69597;BMP180;70000;51.176;-115.568;2023-07-13T06:34:46;86778.60;;;17.00
69597;BMP180;70000;51.176;-115.568;2023-07-13T06:37:15;86790.20;;;16.90
69597;BMP180;70000;51.176;-115.568;2023-07-13T06:39:44;86794.40;;;16.84
69597;BMP180;70000;51.176;-115.568;2023-07-13T06:42:15;86799.60;;;16.80
69597;BMP180;70000;51.176;-115.568;2023-07-13T06:44:44;86801.40;;;16.70
69597;BMP180;70000;51.176;-115.568;2023-07-13T06:47:13;86807.20;;;16.60
69597;BMP180;70000;51.176;-115.568;2023-07-13T06:49:42;86818.00;;;16.60
69597;BMP180;70000;51.176;-115.568;2023-07-13T06:52:16;86822.80;;;16.58
69597;BMP180;70000;51.176;-115.568;2023-07-13T06:54:46;86830.20;;;16.50
69597;BMP180;70000;51.176;-115.568;2023-07-13T06:57:15;86837.60;;;16.50
69597;BMP180;70000;51.176;-115.568;2023-07-13T06:59:45;86840.60;;;16.50
69597;BMP180;70000;51.176;-115.568;2023-07-13T07:02:14;86840.80;;;16.50
69597;BMP180;70000;51.176;-115.568;2023-07-13T07:04:43;86842.80;;;16.40
69597;BMP180;70000;51.176;-115.568;2023-07-13T07:07:12;86838.80;;;16.40
69597;BMP180;70000;51.176;-115.568;2023-07-13T07:09:45;86839.60;;;16.40
69597;BMP180;70000;51.176;-115.568;2023-07-13T07:12:17;86852.00;;;16.30
69597;BMP180;70000;51.176;-115.568;2023-07-13T07:14:46;86853.80;;;16.30
69597;BMP180;70000;51.176;-115.568;2023-07-13T07:17:22;86852.80;;;16.22
69597;BMP180;70000;51.176;-115.568;2023-07-13T07:19:52;86857.00;;;16.20
69597;BMP180;70000;51.176;-115.568;2023-07-13T07:22:24;86856.20;;;16.20
69597;BMP180;70000;51.176;-115.568;2023-07-13T07:24:58;86863.40;;;16.10
69597;BMP180;70000;51.176;-115.568;2023-07-13T07:27:28;86861.80;;;16.10
69597;BMP180;70000;51.176;-115.568;2023-07-13T07:30:02;86865.20;;;16.00
69597;BMP180;70000;51.176;-115.568;2023-07-13T07:32:35;86870.20;;;16.00
69597;BMP180;70000;51.176;-115.568;2023-07-13T07:35:07;86870.60;;;16.00
69597;BMP180;70000;51.176;-115.568;2023-07-13T07:37:36;86868.00;;;15.90
69597;BMP180;70000;51.176;-115.568;2023-07-13T07:40:08;86864.80;;;15.86
69597;BMP180;70000;51.176;-115.568;2023-07-13T07:42:40;86865.60;;;15.90
69597;BMP180;70000;51.176;-115.568;2023-07-13T07:45:10;86862.00;;;15.90
69597;BMP180;70000;51.176;-115.568;2023-07-13T07:47:39;86862.40;;;15.80
69597;BMP180;70000;51.176;-115.568;2023-07-13T07:50:10;86863.60;;;15.80
69597;BMP180;70000;51.176;-115.568;2023-07-13T07:52:42;86863.60;;;15.70
69597;BMP180;70000;51.176;-115.568;2023-07-13T07:55:13;86871.40;;;15.70
69597;BMP180;70000;51.176;-115.568;2023-07-13T07:57:49;86861.60;;;15.70
69597;BMP180;70000;51.176;-115.568;2023-07-13T08:00:21;86861.00;;;15.70
69597;BMP180;70000;51.176;-115.568;2023-07-13T08:02:56;86859.20;;;15.70
69597;BMP180;70000;51.176;-115.568;2023-07-13T08:05:45;86858.60;;;15.64
69597;BMP180;70000;51.176;-115.568;2023-07-13T08:08:35;86853.60;;;15.60
69597;BMP180;70000;51.176;-115.568;2023-07-13T08:11:15;86853.20;;;15.60
69597;BMP180;70000;51.176;-115.568;2023-07-13T08:13:47;86854.80;;;15.60
69597;BMP180;70000;51.176;-115.568;2023-07-13T08:16:22;86853.40;;;15.52
69597;BMP180;70000;51.176;-115.568;2023-07-13T08:18:52;86851.80;;;15.50
69597;BMP180;70000;51.176;-115.568;2023-07-13T08:21:21;86850.60;;;15.50
69597;BMP180;70000;51.176;-115.568;2023-07-13T08:24:17;86849.20;;;15.50
69597;BMP180;70000;51.176;-115.568;2023-07-13T08:26:46;86847.00;;;15.50
69597;BMP180;70000;51.176;-115.568;2023-07-13T08:29:16;86848.80;;;15.50
69597;BMP180;70000;51.176;-115.568;2023-07-13T08:31:45;86846.00;;;15.48
69597;BMP180;70000;51.176;-115.568;2023-07-13T08:34:17;86847.80;;;15.50
69597;BMP180;70000;51.176;-115.568;2023-07-13T08:36:50;86845.00;;;15.44
69597;BMP180;70000;51.176;-115.568;2023-07-13T08:39:19;86840.60;;;15.40
69597;BMP180;70000;51.176;-115.568;2023-07-13T08:41:55;86842.40;;;15.40
69597;BMP180;70000;51.176;-115.568;2023-07-13T08:44:56;86838.80;;;15.40
69597;BMP180;70000;51.176;-115.568;2023-07-13T08:47:29;86838.40;;;15.40
69597;BMP180;70000;51.176;-115.568;2023-07-13T08:50:01;86834.80;;;15.40
69597;BMP180;70000;51.176;-115.568;2023-07-13T08:52:40;86835.20;;;15.40
69597;BMP180;70000;51.176;-115.568;2023-07-13T08:55:21;86840.40;;;15.40
69597;BMP180;70000;51.176;-115.568;2023-07-13T08:58:15;86842.80;;;15.40
69597;BMP180;70000;51.176;-115.568;2023-07-13T09:00:56;86840.00;;;15.30
69597;BMP180;70000;51.176;-115.568;2023-07-13T09:04:29;86840.20;;;15.30
69597;BMP180;70000;51.176;-115.568;2023-07-13T09:17:51;86829.20;;;14.98
69597;BMP180;70000;51.176;-115.568;2023-07-13T09:27:30;86809.60;;;14.90
69597;BMP180;70000;51.176;-115.568;2023-07-13T09:30:38;86804.80;;;14.80
69597;BMP180;70000;51.176;-115.568;2023-07-13T09:33:13;86800.60;;;14.80
69597;BMP180;70000;51.176;-115.568;2023-07-13T09:35:43;86801.60;;;14.80
69597;BMP180;70000;51.176;-115.568;2023-07-13T09:38:18;86799.40;;;14.76
69597;BMP180;70000;51.176;-115.568;2023-07-13T09:44:14;86801.00;;;14.70
69597;BMP180;70000;51.176;-115.568;2023-07-13T09:46:53;86800.80;;;14.70
69597;BMP180;70000;51.176;-115.568;2023-07-13T09:49:37;86798.40;;;14.70
69597;BMP180;70000;51.176;-115.568;2023-07-13T09:52:15;86803.40;;;14.70
69597;BMP180;70000;51.176;-115.568;2023-07-13T09:54:48;86800.60;;;14.62
69597;BMP180;70000;51.176;-115.568;2023-07-13T09:57:23;86800.60;;;14.60
69597;BMP180;70000;51.176;-115.568;2023-07-13T10:00:27;86800.60;;;14.60
69597;BMP180;70000;51.176;-115.568;2023-07-13T10:03:20;86801.40;;;14.50
69597;BMP180;70000;51.176;-115.568;2023-07-13T10:06:00;86796.00;;;14.50
69597;BMP180;70000;51.176;-115.568;2023-07-13T10:08:40;86798.80;;;14.50
69597;BMP180;70000;51.176;-115.568;2023-07-13T10:11:27;86804.40;;;14.50
69597;BMP180;70000;51.176;-115.568;2023-07-13T10:14:15;86802.40;;;14.40
69597;BMP180;70000;51.176;-115.568;2023-07-13T10:16:47;86804.60;;;14.40
69597;BMP180;70000;51.176;-115.568;2023-07-13T10:19:29;86804.00;;;14.40
69597;BMP180;70000;51.176;-115.568;2023-07-13T10:22:29;86807.60;;;14.40
69597;BMP180;70000;51.176;-115.568;2023-07-13T10:25:16;86802.80;;;14.38
69597;BMP180;70000;51.176;-115.568;2023-07-13T10:27:51;86798.40;;;14.38
69597;BMP180;70000;51.176;-115.568;2023-07-13T10:30:35;86794.60;;;14.30
69597;BMP180;70000;51.176;-115.568;2023-07-13T10:33:13;86800.40;;;14.30
69597;BMP180;70000;51.176;-115.568;2023-07-13T10:35:48;86801.00;;;14.30
69597;BMP180;70000;51.176;-115.568;2023-07-13T10:38:26;86799.80;;;14.30
69597;BMP180;70000;51.176;-115.568;2023-07-13T10:41:17;86808.20;;;14.30
69597;BMP180;70000;51.176;-115.568;2023-07-13T10:43:52;86797.20;;;14.24
69597;BMP180;70000;51.176;-115.568;2023-07-13T10:46:27;86800.80;;;14.20
69597;BMP180;70000;51.176;-115.568;2023-07-13T10:49:09;86797.80;;;14.16
69597;BMP180;70000;51.176;-115.568;2023-07-13T10:51:40;86797.20;;;14.10
69597;BMP180;70000;51.176;-115.568;2023-07-13T10:54:27;86792.60;;;14.00
69597;BMP180;70000;51.176;-115.568;2023-07-13T10:57:20;86789.60;;;14.00
69597;BMP180;70000;51.176;-115.568;2023-07-13T11:00:18;86790.60;;;14.00
69597;BMP180;70000;51.176;-115.568;2023-07-13T11:02:59;86788.40;;;14.00
69597;BMP180;70000;51.176;-115.568;2023-07-13T11:05:34;86787.20;;;14.00
69597;BMP180;70000;51.176;-115.568;2023-07-13T11:08:32;86791.40;;;14.00
69597;BMP180;70000;51.176;-115.568;2023-07-13T11:11:02;86791.00;;;14.00
69597;BMP180;70000;51.176;-115.568;2023-07-13T11:25:06;86793.60;;;13.90
69597;BMP180;70000;51.176;-115.568;2023-07-13T11:31:01;86798.80;;;13.88
69597;BMP180;70000;51.176;-115.568;2023-07-13T11:36:19;86801.20;;;13.84
69597;BMP180;70000;51.176;-115.568;2023-07-13T11:39:21;86800.20;;;13.80
69597;BMP180;70000;51.176;-115.568;2023-07-13T11:42:03;86800.80;;;13.80
69597;BMP180;70000;51.176;-115.568;2023-07-13T11:44:35;86807.20;;;13.80
69597;BMP180;70000;51.176;-115.568;2023-07-13T11:47:18;86801.00;;;13.80
69597;BMP180;70000;51.176;-115.568;2023-07-13T11:49:52;86803.40;;;13.80
69597;BMP180;70000;51.176;-115.568;2023-07-13T11:52:31;86802.40;;;13.84
69597;BMP180;70000;51.176;-115.568;2023-07-13T11:55:20;86810.20;;;13.88
69597;BMP180;70000;51.176;-115.568;2023-07-13T11:57:59;86803.80;;;13.80
69597;BMP180;70000;51.176;-115.568;2023-07-13T12:00:31;86804.00;;;13.82
69597;BMP180;70000;51.176;-115.568;2023-07-13T12:03:06;86808.00;;;13.80
69597;BMP180;70000;51.176;-115.568;2023-07-13T12:05:36;86813.20;;;13.80
69597;BMP180;70000;51.176;-115.568;2023-07-13T12:08:10;86811.40;;;13.80
69597;BMP180;70000;51.176;-115.568;2023-07-13T12:11:04;86804.60;;;13.80
69597;BMP180;70000;51.176;-115.568;2023-07-13T12:13:38;86804.20;;;13.80
69597;BMP180;70000;51.176;-115.568;2023-07-13T12:19:26;86809.20;;;13.80
69597;BMP180;70000;51.176;-115.568;2023-07-13T12:21:58;86804.60;;;13.80
69597;BMP180;70000;51.176;-115.568;2023-07-13T12:24:31;86805.20;;;13.76
69597;BMP180;70000;51.176;-115.568;2023-07-13T12:27:20;86807.80;;;13.70
69597;BMP180;70000;51.176;-115.568;2023-07-13T12:30:05;86802.20;;;13.70
69597;BMP180;70000;51.176;-115.568;2023-07-13T12:32:38;86800.00;;;13.70
69597;BMP180;70000;51.176;-115.568;2023-07-13T12:35:17;86801.00;;;13.70
69597;BMP180;70000;51.176;-115.568;2023-07-13T12:37:51;86799.00;;;13.70
69597;BMP180;70000;51.176;-115.568;2023-07-13T12:40:35;86797.00;;;13.70
69597;BMP180;70000;51.176;-115.568;2023-07-13T12:43:09;86796.40;;;13.76
69597;BMP180;70000;51.176;-115.568;2023-07-13T12:46:47;86799.80;;;13.80
69597;BMP180;70000;51.176;-115.568;2023-07-13T12:48:58;86794.60;;;13.80
69597;BMP180;70000;51.176;-115.568;2023-07-13T12:51:55;86799.40;;;13.80
69597;BMP180;70000;51.176;-115.568;2023-07-13T12:54:28;86798.80;;;13.80
69597;BMP180;70000;51.176;-115.568;2023-07-13T12:57:02;86797.00;;;13.80
69597;BMP180;70000;51.176;-115.568;2023-07-13T12:59:35;86790.40;;;13.80
69597;BMP180;70000;51.176;-115.568;2023-07-13T13:02:30;86787.60;;;13.80
69597;BMP180;70000;51.176;-115.568;2023-07-13T13:05:02;86791.80;;;13.80
69597;BMP180;70000;51.176;-115.568;2023-07-13T13:07:36;86796.80;;;13.80
69597;BMP180;70000;51.176;-115.568;2023-07-13T13:10:13;86792.40;;;13.80
69597;BMP180;70000;51.176;-115.568;2023-07-13T13:12:52;86792.00;;;13.80
69597;BMP180;70000;51.176;-115.568;2023-07-13T13:15:27;86792.80;;;13.80
69597;BMP180;70000;51.176;-115.568;2023-07-13T13:22:31;86791.20;;;13.80
69597;BMP180;70000;51.176;-115.568;2023-07-13T13:25:42;86792.20;;;13.80
69597;BMP180;70000;51.176;-115.568;2023-07-13T13:28:48;86786.80;;;13.80
69597;BMP180;70000;51.176;-115.568;2023-07-13T13:32:29;86788.00;;;13.70
69597;BMP180;70000;51.176;-115.568;2023-07-13T13:35:25;86792.20;;;13.70
69597;BMP180;70000;51.176;-115.568;2023-07-13T13:38:33;86791.40;;;13.70
69597;BMP180;70000;51.176;-115.568;2023-07-13T13:41:16;86788.40;;;13.70
69597;BMP180;70000;51.176;-115.568;2023-07-13T13:44:09;86796.00;;;13.60
69597;BMP180;70000;51.176;-115.568;2023-07-13T13:50:34;86800.00;;;13.60
69597;BMP180;70000;51.176;-115.568;2023-07-13T13:53:13;86808.20;;;13.60
69597;BMP180;70000;51.176;-115.568;2023-07-13T13:55:58;86801.20;;;13.60
69597;BMP180;70000;51.176;-115.568;2023-07-13T13:59:09;86808.40;;;13.60
69597;BMP180;70000;51.176;-115.568;2023-07-13T14:02:35;86805.80;;;13.68
69597;BMP180;70000;51.176;-115.568;2023-07-13T14:05:24;86810.60;;;13.70
69597;BMP180;70000;51.176;-115.568;2023-07-13T14:08:17;86810.00;;;13.64
69597;BMP180;70000;51.176;-115.568;2023-07-13T14:11:28;86811.00;;;13.68
69597;BMP180;70000;51.176;-115.568;2023-07-13T14:14:26;86814.60;;;13.70
69597;BMP180;70000;51.176;-115.568;2023-07-13T14:17:20;86805.20;;;13.70
69597;BMP180;70000;51.176;-115.568;2023-07-13T14:20:40;86808.60;;;13.70
69597;BMP180;70000;51.176;-115.568;2023-07-13T14:23:20;86812.00;;;13.70
69597;BMP180;70000;51.176;-115.568;2023-07-13T14:26:29;86811.00;;;13.78
69597;BMP180;70000;51.176;-115.568;2023-07-13T14:29:52;86806.80;;;13.80
69597;BMP180;70000;51.176;-115.568;2023-07-13T14:32:37;86812.80;;;13.80
69597;BMP180;70000;51.176;-115.568;2023-07-13T14:35:26;86813.00;;;13.80
69597;BMP180;70000;51.176;-115.568;2023-07-13T14:38:32;86810.80;;;13.80
69597;BMP180;70000;51.176;-115.568;2023-07-13T14:44:51;86808.80;;;13.80
69597;BMP180;70000;51.176;-115.568;2023-07-13T14:47:45;86813.00;;;13.90
69597;BMP180;70000;51.176;-115.568;2023-07-13T14:50:31;86811.20;;;13.90
69597;BMP180;70000;51.176;-115.568;2023-07-13T14:53:19;86810.20;;;13.90
69597;BMP180;70000;51.176;-115.568;2023-07-13T14:56:00;86807.80;;;14.00
69597;BMP180;70000;51.176;-115.568;2023-07-13T14:59:07;86804.60;;;14.00
69597;BMP180;70000;51.176;-115.568;2023-07-13T15:01:52;86802.00;;;14.00
69597;BMP180;70000;51.176;-115.568;2023-07-13T15:04:37;86800.20;;;14.08
69597;BMP180;70000;51.176;-115.568;2023-07-13T15:07:11;86802.20;;;14.10
69597;BMP180;70000;51.176;-115.568;2023-07-13T15:10:20;86800.00;;;14.10
69597;BMP180;70000;51.176;-115.568;2023-07-13T15:13:32;86804.60;;;14.20
69597;BMP180;70000;51.176;-115.568;2023-07-13T15:16:26;86805.00;;;14.26
69597;BMP180;70000;51.176;-115.568;2023-07-13T15:18:58;86806.60;;;14.30
69597;BMP180;70000;51.176;-115.568;2023-07-13T15:24:54;86811.00;;;14.30
69597;BMP180;70000;51.176;-115.568;2023-07-13T15:28:06;86809.00;;;14.30
69597;BMP180;70000;51.176;-115.568;2023-07-13T15:30:48;86811.40;;;14.30
69597;BMP180;70000;51.176;-115.568;2023-07-13T15:33:32;86813.40;;;14.40
69597;BMP180;70000;51.176;-115.568;2023-07-13T15:36:04;86810.20;;;14.44
69597;BMP180;70000;51.176;-115.568;2023-07-13T15:38:40;86809.00;;;14.50
69597;BMP180;70000;51.176;-115.568;2023-07-13T15:41:27;86813.60;;;14.50
69597;BMP180;70000;51.176;-115.568;2023-07-13T15:43:59;86812.40;;;14.60
69597;BMP180;70000;51.176;-115.568;2023-07-13T15:46:41;86816.40;;;14.66
69597;BMP180;70000;51.176;-115.568;2023-07-13T15:49:10;86812.00;;;14.68
69597;BMP180;70000;51.176;-115.568;2023-07-13T15:51:55;86815.20;;;14.70
69597;BMP180;70000;51.176;-115.568;2023-07-13T15:54:28;86813.60;;;14.70
69597;BMP180;70000;51.176;-115.568;2023-07-13T15:57:03;86807.20;;;14.70
69597;BMP180;70000;51.176;-115.568;2023-07-13T15:59:41;86803.60;;;14.70
69597;BMP180;70000;51.176;-115.568;2023-07-13T16:02:18;86798.40;;;14.78
69597;BMP180;70000;51.176;-115.568;2023-07-13T16:04:48;86795.20;;;14.80
69597;BMP180;70000;51.176;-115.568;2023-07-13T16:07:18;86801.00;;;14.90
69597;BMP180;70000;51.176;-115.568;2023-07-13T16:09:48;86800.80;;;14.90
69597;BMP180;70000;51.176;-115.568;2023-07-13T16:12:19;86800.20;;;14.90
69597;BMP180;70000;51.176;-115.568;2023-07-13T16:14:53;86799.80;;;15.00
69597;BMP180;70000;51.176;-115.568;2023-07-13T16:17:22;86798.80;;;15.06
69597;BMP180;70000;51.176;-115.568;2023-07-13T16:19:51;86801.40;;;15.10
69597;BMP180;70000;51.176;-115.568;2023-07-13T16:22:20;86796.80;;;15.10
69597;BMP180;70000;51.176;-115.568;2023-07-13T16:24:50;86790.20;;;15.20
69597;BMP180;70000;51.176;-115.568;2023-07-13T16:27:29;86787.80;;;15.20
69597;BMP180;70000;51.176;-115.568;2023-07-13T16:29:58;86787.40;;;15.30
69597;BMP180;70000;51.176;-115.568;2023-07-13T16:32:29;86782.80;;;15.40